Time;durP1;ratioP1;P1;durP2;ratioP2;P2;SDS_P1;SDS_P2;PMS_P1;PMS_P2;Temp;Humidity;BMP_temperature;BMP_pressure;BME280_temperature;BME280_humidity;BME280_pressure;Samples;Min_cycle;Max_cycle;Signal;HPM_P1;HPM_P2
2022/12/17 13:06:01;;;;;;;1.55;1.05;;;-4.30;99.90;;;;;;5012678;28;20037;-77
2022/12/17 13:08:27;;;;;;;1.15;1.15;;;-4.40;99.90;;;;;;5013167;28;20030;-76
2022/12/17 13:10:53;;;;;;;12.82;4.97;;;-4.30;99.90;;;;;;5015126;28;20032;-77
2022/12/17 13:13:26;;;;;;;0.93;0.93;;;-4.30;99.90;;;;;;5016060;28;20076;-80
2022/12/17 13:16:01;;;;;;;1.08;1.08;;;-4.30;99.90;;;;;;5025872;28;20116;-78
2022/12/17 13:18:32;;;;;;;3.03;2.78;;;-4.30;99.90;;;;;;5032674;28;20065;-76
2022/12/17 13:21:23;;;;;;;1.63;1.52;;;-4.30;99.90;;;;;;5032988;28;20530;-78
2022/12/17 13:23:48;;;;;;;2.75;2.65;;;-4.30;99.90;;;;;;5014508;28;20038;-76
2022/12/17 13:26:18;;;;;;;0.95;0.93;;;-4.30;99.90;;;;;;5033037;28;20022;-77
2022/12/17 13:29:11;;;;;;;0.70;0.70;;;-4.20;99.90;;;;;;5014550;28;20025;-77
2022/12/17 13:32:01;;;;;;;0.70;0.70;;;-4.20;99.90;;;;;;5015150;28;20420;-76
2022/12/17 13:34:47;;;;;;;0.80;0.80;;;-4.20;99.90;;;;;;4994010;28;20064;-76
2022/12/17 13:37:27;;;;;;;0.70;0.70;;;-4.30;99.90;;;;;;4978640;28;20040;-77
2022/12/17 13:40:23;;;;;;;0.65;0.65;;;-4.30;99.90;;;;;;5015075;28;20037;-77
2022/12/17 13:42:50;;;;;;;0.90;0.90;;;-4.30;99.90;;;;;;5014896;28;20556;-77
2022/12/17 13:45:21;;;;;;;0.60;0.60;;;-4.30;99.90;;;;;;5012069;28;20557;-77
2022/12/17 13:47:55;;;;;;;1.00;1.00;;;-4.30;99.90;;;;;;5014058;28;20025;-76
2022/12/17 13:50:23;;;;;;;0.90;0.90;;;-4.30;99.90;;;;;;5032517;28;20033;-77
2022/12/17 13:52:49;;;;;;;3.90;3.70;;;-4.20;99.90;;;;;;5032373;28;20030;-76
2022/12/17 13:55:21;;;;;;;0.50;0.50;;;-4.20;99.90;;;;;;5014995;28;20022;-76
2022/12/17 13:57:49;;;;;;;0.60;0.60;;;-4.20;99.90;;;;;;5014583;28;20029;-76
2022/12/17 14:00:28;;;;;;;0.70;0.70;;;-4.30;99.90;;;;;;5032627;28;20112;-76
2022/12/17 14:02:54;;;;;;;1.17;1.17;;;-4.30;99.90;;;;;;5032437;28;20479;-76
2022/12/17 14:05:32;;;;;;;1.75;1.75;;;-4.30;99.90;;;;;;5032551;28;20034;-76
2022/12/17 14:08:00;;;;;;;0.95;0.95;;;-4.30;99.90;;;;;;5014472;28;20024;-76
2022/12/17 14:10:27;;;;;;;4.82;4.63;;;-4.30;99.90;;;;;;5003104;28;20029;-76
2022/12/17 14:13:15;;;;;;;0.70;0.70;;;-4.30;99.90;;;;;;5000053;28;20364;-77
2022/12/17 14:15:48;;;;;;;0.60;0.60;;;-4.30;99.90;;;;;;5031835;28;20061;-76
2022/12/17 14:18:17;;;;;;;0.60;0.60;;;-4.30;99.90;;;;;;5032092;28;20453;-76
2022/12/17 14:20:43;;;;;;;0.50;0.50;;;-4.30;99.90;;;;;;5014369;28;20061;-76
2022/12/17 14:23:23;;;;;;;14.27;5.57;;;-4.30;99.90;;;;;;5032081;28;20064;-76
2022/12/17 14:25:49;;;;;;;0.68;0.68;;;-4.30;99.90;;;;;;5032380;28;20024;-77
2022/12/17 14:28:33;;;;;;;1.05;1.05;;;-4.30;99.90;;;;;;5031761;28;20035;-76
2022/12/17 14:31:13;;;;;;;0.57;0.57;;;-4.30;99.90;;;;;;4976525;28;20038;-77
2022/12/17 14:33:41;;;;;;;1.63;1.63;;;-4.40;99.90;;;;;;5007503;28;20075;-75
2022/12/17 14:36:19;;;;;;;1.10;1.10;;;-4.40;99.90;;;;;;5014117;28;20022;-76
2022/12/17 14:39:15;;;;;;;4.68;2.15;;;-4.40;99.90;;;;;;5031791;28;20145;-75
2022/12/17 14:44:27;;;;;;;0.60;0.60;;;-4.50;99.90;;;;;;5031854;28;20105;-76
2022/12/17 14:47:17;;;;;;;2.47;1.92;;;-4.50;99.90;;;;;;5031526;28;20109;-76
2022/12/17 14:50:08;;;;;;;0.70;0.70;;;-4.60;99.90;;;;;;5013930;28;20484;-76
2022/12/17 14:52:41;;;;;;;0.73;0.73;;;-4.60;99.90;;;;;;5032410;28;20403;-75
2022/12/17 14:55:31;;;;;;;0.80;0.80;;;-4.70;99.90;;;;;;5025829;28;20642;-76
2022/12/17 14:58:12;;;;;;;2.45;2.35;;;-4.80;99.90;;;;;;5015640;28;20037;-76
2022/12/17 15:00:40;;;;;;;0.60;0.60;;;-4.80;99.90;;;;;;5017774;28;20023;-75
2022/12/17 15:03:13;;;;;;;1.60;1.60;;;-4.90;99.90;;;;;;5035619;28;20033;-74
2022/12/17 15:05:40;;;;;;;0.82;0.82;;;-5.00;99.90;;;;;;5035748;28;20056;-75
2022/12/17 15:08:05;;;;;;;0.75;0.75;;;-5.00;99.90;;;;;;5034905;28;20049;-76
2022/12/17 15:10:31;;;;;;;2.10;2.00;;;-5.10;99.90;;;;;;5022741;28;20029;-75
2022/12/17 15:12:56;;;;;;;5.25;2.85;;;-5.20;99.90;;;;;;5016339;28;20119;-74
2022/12/17 15:15:22;;;;;;;1.75;1.67;;;-5.40;99.90;;;;;;5023425;28;20056;-72
2022/12/17 15:17:47;;;;;;;1.27;1.27;;;-5.40;99.90;;;;;;5016868;28;20047;-74
2022/12/17 15:20:18;;;;;;;0.65;0.65;;;-5.50;99.90;;;;;;5023782;28;20025;-75
2022/12/17 15:22:45;;;;;;;1.00;1.00;;;-5.60;99.90;;;;;;5033927;28;20021;-74
2022/12/17 15:25:16;;;;;;;0.93;0.93;;;-5.70;99.90;;;;;;5035149;28;20506;-74
2022/12/17 15:27:42;;;;;;;2.15;2.05;;;-5.70;99.90;;;;;;5016867;28;20021;-74
2022/12/17 15:30:12;;;;;;;1.17;1.13;;;-5.80;99.90;;;;;;5022383;28;20037;-74
2022/12/17 15:32:37;;;;;;;1.15;1.15;;;-5.90;99.90;;;;;;5008942;28;20088;-75
2022/12/17 15:35:03;;;;;;;0.65;0.65;;;-5.80;99.90;;;;;;5023466;28;20083;-74
2022/12/17 15:37:29;;;;;;;2.15;2.05;;;-6.00;99.90;;;;;;5017247;28;20083;-74
2022/12/17 15:39:55;;;;;;;2.10;2.03;;;-6.00;99.90;;;;;;5034747;28;20499;-74
2022/12/17 15:45:05;;;;;;;4.65;3.53;;;-6.10;99.90;;;;;;5019185;28;20029;-75
2022/12/17 15:47:31;;;;;;;0.82;0.82;;;-6.20;99.90;;;;;;5015044;28;20075;-76
2022/12/17 15:49:56;;;;;;;0.60;0.60;;;-6.30;99.90;;;;;;5030666;28;20022;-75
2022/12/17 15:52:22;;;;;;;1.77;1.67;;;-6.40;99.90;;;;;;5016998;28;20026;-75
2022/12/17 15:54:48;;;;;;;0.50;0.50;;;-6.40;99.90;;;;;;5016918;28;20032;-75
2022/12/17 15:57:13;;;;;;;0.52;0.52;;;-6.40;99.90;;;;;;5016945;28;20038;-75
2022/12/17 15:59:39;;;;;;;2.30;2.20;;;-6.40;99.90;;;;;;5016634;28;20028;-76
2022/12/17 16:02:05;;;;;;;0.80;0.80;;;-6.40;99.90;;;;;;5013390;28;20018;-75
2022/12/17 16:04:30;;;;;;;4.97;4.72;;;-6.50;99.90;;;;;;5030217;28;20394;-75
2022/12/17 16:06:56;;;;;;;0.95;0.95;;;-6.50;99.90;;;;;;5016554;28;20025;-75
2022/12/17 16:09:23;;;;;;;0.85;0.85;;;-6.60;99.90;;;;;;5030682;28;20022;-74
2022/12/17 16:11:53;;;;;;;1.58;1.48;;;-6.70;99.90;;;;;;5024000;28;20018;-75
2022/12/17 16:14:19;;;;;;;0.60;0.60;;;-6.70;99.90;;;;;;5034372;28;20025;-75
2022/12/17 16:16:44;;;;;;;1.23;1.23;;;-6.70;99.90;;;;;;5016519;28;20546;-75
2022/12/17 16:19:10;;;;;;;0.70;0.70;;;-6.80;99.90;;;;;;5016285;28;20075;-75
2022/12/17 16:21:35;;;;;;;1.80;1.80;;;-6.80;99.90;;;;;;5034198;28;20084;-76
2022/12/17 16:24:01;;;;;;;0.50;0.50;;;-6.90;99.90;;;;;;5034213;28;20061;-75
2022/12/17 16:26:26;;;;;;;0.70;0.70;;;-7.00;99.90;;;;;;5034189;28;20435;-75
2022/12/17 16:28:52;;;;;;;3.25;2.75;;;-7.00;99.90;;;;;;5033857;28;20045;-75
2022/12/17 16:31:18;;;;;;;1.35;1.30;;;-7.00;99.90;;;;;;5016082;28;20022;-74
2022/12/17 16:33:46;;;;;;;1.45;1.42;;;-7.10;99.90;;;;;;5034507;28;20021;-74
2022/12/17 16:36:14;;;;;;;0.60;0.60;;;-7.10;99.90;;;;;;5033048;28;20113;-75
2022/12/17 16:38:49;;;;;;;1.58;1.58;;;-7.20;99.90;;;;;;5011377;28;20081;-75
2022/12/17 16:41:15;;;;;;;0.80;0.80;;;-7.20;99.90;;;;;;5025203;28;20029;-74
2022/12/17 16:43:41;;;;;;;3.80;1.25;;;-7.10;99.90;;;;;;5015672;28;20455;-75
2022/12/17 16:46:32;;;;;;;1.23;1.23;;;-7.30;99.90;;;;;;5015928;28;20049;-75
2022/12/17 16:49:04;;;;;;;4.78;1.73;;;-7.30;99.90;;;;;;5002642;28;20022;-74
2022/12/17 16:51:30;;;;;;;1.05;1.05;;;-7.30;99.90;;;;;;5026893;28;20116;-75
2022/12/17 16:53:56;;;;;;;0.80;0.80;;;-7.30;99.90;;;;;;5012332;28;20128;-75
2022/12/17 16:56:24;;;;;;;0.88;0.88;;;-7.30;99.90;;;;;;5012455;28;20030;-75
2022/12/17 16:58:51;;;;;;;5.32;4.30;;;-7.40;99.90;;;;;;5012403;28;20030;-75
2022/12/17 17:01:25;;;;;;;0.68;0.68;;;-7.50;99.90;;;;;;5029717;28;20025;-74
2022/12/17 17:03:50;;;;;;;0.82;0.82;;;-7.50;99.90;;;;;;5033504;28;20502;-74
2022/12/17 17:06:17;;;;;;;2.38;1.38;;;-7.50;99.90;;;;;;5033242;28;20032;-75
2022/12/17 17:08:43;;;;;;;0.95;0.95;;;-7.60;99.90;;;;;;5033197;28;20546;-74
2022/12/17 17:11:11;;;;;;;5.60;5.22;;;-7.60;99.90;;;;;;4999001;28;20507;-75
2022/12/17 17:13:37;;;;;;;0.70;0.70;;;-7.60;99.90;;;;;;5024143;28;20041;-74
2022/12/17 17:16:04;;;;;;;0.82;0.82;;;-7.60;99.90;;;;;;5029064;28;20037;-75
2022/12/17 17:18:30;;;;;;;2.40;2.30;;;-7.60;99.90;;;;;;5024103;28;20360;-74
2022/12/17 17:21:35;;;;;;;1.08;1.08;;;-7.60;99.90;;;;;;5011759;28;20040;-74
2022/12/17 17:24:06;;;;;;;1.65;1.65;;;-7.60;99.90;;;;;;5004463;28;20079;-73
2022/12/17 17:26:33;;;;;;;0.63;0.63;;;-7.60;99.90;;;;;;5032463;28;20029;-75
2022/12/17 17:29:00;;;;;;;0.60;0.60;;;-7.60;99.90;;;;;;5015457;28;20476;-75
2022/12/17 17:31:26;;;;;;;0.70;0.70;;;-7.60;99.90;;;;;;5015045;28;20029;-75
2022/12/17 17:33:52;;;;;;;1.00;0.98;;;-7.70;99.90;;;;;;5032952;28;20036;-74
2022/12/17 17:36:23;;;;;;;1.83;1.75;;;-7.70;99.90;;;;;;5032887;28;20056;-74
2022/12/17 17:38:51;;;;;;;0.60;0.60;;;-7.80;99.90;;;;;;5032612;28;20029;-75
2022/12/17 17:41:20;;;;;;;0.52;0.52;;;-7.80;99.90;;;;;;5014867;28;20029;-74
2022/12/17 17:43:46;;;;;;;14.73;5.47;;;-7.80;99.90;;;;;;5032630;28;20028;-75
2022/12/17 17:46:13;;;;;;;2.47;2.38;;;-7.80;99.90;;;;;;5032639;28;20025;-74
2022/12/17 17:48:39;;;;;;;0.77;0.77;;;-7.80;99.90;;;;;;5032556;28;20032;-74
2022/12/17 17:51:09;;;;;;;0.57;0.57;;;-7.90;99.90;;;;;;5011675;28;20029;-74
2022/12/17 17:53:35;;;;;;;1.17;1.15;;;-7.90;99.90;;;;;;5031564;28;20048;-74
2022/12/17 17:56:06;;;;;;;1.08;1.08;;;-8.10;99.90;;;;;;5032524;28;20037;-74
2022/12/17 17:58:32;;;;;;;2.72;2.58;;;-8.10;99.90;;;;;;5011111;28;20113;-74
2022/12/17 18:00:59;;;;;;;0.85;0.85;;;-8.10;99.90;;;;;;5015741;28;20488;-73
2022/12/17 18:03:28;;;;;;;2.45;2.25;;;-8.10;99.90;;;;;;5014190;28;20034;-74
2022/12/17 18:05:53;;;;;;;2.20;2.10;;;-8.10;99.90;;;;;;5014575;28;20026;-74
2022/12/17 18:08:19;;;;;;;4.25;1.83;;;-8.20;99.90;;;;;;5004139;28;20503;-74
2022/12/17 18:10:55;;;;;;;0.70;0.70;;;-8.20;99.90;;;;;;4995459;28;20030;-74
2022/12/17 18:16:05;;;;;;;1.45;1.45;;;-8.30;99.90;;;;;;5032247;28;20136;-74
2022/12/17 18:18:31;;;;;;;0.68;0.68;;;-8.30;99.90;;;;;;5032199;28;20443;-74
2022/12/17 18:21:24;;;;;;;1.20;1.20;;;-8.30;99.90;;;;;;5014504;28;20037;-74
2022/12/17 18:23:54;;;;;;;1.40;1.40;;;-8.40;99.90;;;;;;5015818;28;20126;-74
2022/12/17 18:26:22;;;;;;;2.08;2.03;;;-8.40;99.90;;;;;;5032266;28;20467;-74
2022/12/17 18:28:48;;;;;;;1.13;1.13;;;-8.30;99.90;;;;;;5031951;28;20464;-74
2022/12/17 18:31:18;;;;;;;2.15;2.00;;;-8.30;99.90;;;;;;5032078;28;20041;-74
2022/12/17 18:33:47;;;;;;;1.25;1.25;;;-8.30;99.90;;;;;;5031463;28;20036;-74
2022/12/17 18:36:16;;;;;;;1.45;1.45;;;-8.30;99.90;;;;;;5010697;28;20026;-73
2022/12/17 18:38:41;;;;;;;6.82;4.65;;;-8.20;99.90;;;;;;5023751;28;20037;-74
2022/12/17 18:43:55;;;;;;;3.30;3.20;;;-8.30;99.90;;;;;;5031996;28;20163;-74
2022/12/17 18:46:21;;;;;;;1.88;1.83;;;-8.40;99.90;;;;;;5010853;28;20507;-74
2022/12/17 18:48:47;;;;;;;0.60;0.60;;;-8.30;99.90;;;;;;5013817;28;20060;-74
2022/12/17 18:51:13;;;;;;;0.80;0.80;;;-8.30;99.90;;;;;;5031623;28;20053;-74
2022/12/17 18:53:38;;;;;;;0.80;0.80;;;-8.30;99.90;;;;;;5026094;28;20030;-75
2022/12/17 18:56:09;;;;;;;0.80;0.80;;;-8.30;99.90;;;;;;4997989;28;20022;-74
2022/12/17 18:58:34;;;;;;;0.70;0.70;;;-8.20;99.90;;;;;;5015022;28;20030;-74
2022/12/17 19:01:00;;;;;;;2.67;2.53;;;-8.10;99.90;;;;;;5015700;28;20073;-74
2022/12/17 19:03:26;;;;;;;0.60;0.60;;;-8.20;99.90;;;;;;5013914;28;20192;-74
2022/12/17 19:05:51;;;;;;;1.50;1.50;;;-8.30;99.90;;;;;;5031648;28;20024;-75
2022/12/17 19:08:17;;;;;;;1.65;1.17;;;-8.30;99.90;;;;;;5031513;28;20056;-75
2022/12/17 19:10:42;;;;;;;0.60;0.60;;;-8.30;99.90;;;;;;5031592;28;20087;-74
2022/12/17 19:13:08;;;;;;;1.10;1.10;;;-8.30;99.90;;;;;;5013818;28;20030;-74
2022/12/17 19:15:34;;;;;;;0.60;0.60;;;-8.30;99.90;;;;;;5031332;28;20026;-74
2022/12/17 19:18:00;;;;;;;1.38;1.38;;;-8.40;99.90;;;;;;5031782;28;20091;-74
2022/12/17 19:20:25;;;;;;;4.97;4.07;;;-8.30;99.90;;;;;;5017500;28;20038;-75
2022/12/17 19:22:51;;;;;;;1.95;1.95;;;-8.40;99.90;;;;;;5001165;28;20487;-74
2022/12/17 19:25:17;;;;;;;0.70;0.70;;;-8.50;99.90;;;;;;5023075;28;20478;-74
2022/12/17 19:27:42;;;;;;;0.80;0.80;;;-8.40;99.90;;;;;;5040616;28;20018;-74
2022/12/17 19:30:09;;;;;;;2.35;2.22;;;-8.40;99.90;;;;;;5023242;28;20028;-74
2022/12/17 19:32:34;;;;;;;0.95;0.95;;;-8.40;99.90;;;;;;5006993;28;20052;-74
2022/12/17 19:35:00;;;;;;;1.27;1.27;;;-8.40;99.90;;;;;;5042034;28;20512;-74
2022/12/17 19:37:26;;;;;;;1.60;1.52;;;-8.40;99.90;;;;;;5034717;28;20057;-74
2022/12/17 19:39:51;;;;;;;0.75;0.75;;;-8.40;99.90;;;;;;5010923;28;20026;-73
2022/12/17 19:42:26;;;;;;;2.83;2.72;;;-8.40;99.90;;;;;;5041602;28;20104;-74
2022/12/17 19:44:55;;;;;;;3.75;2.90;;;-8.40;99.90;;;;;;5025642;28;20021;-74
2022/12/17 19:47:22;;;;;;;2.08;1.98;;;-8.40;99.90;;;;;;5046383;28;20034;-74
2022/12/17 19:49:48;;;;;;;0.70;0.70;;;-8.40;99.90;;;;;;5027754;28;20033;-74
2022/12/17 19:52:13;;;;;;;2.30;2.17;;;-8.40;99.90;;;;;;5041623;28;20025;-74
2022/12/17 19:54:39;;;;;;;0.90;0.90;;;-8.40;99.90;;;;;;5036419;28;20041;-74
2022/12/17 19:57:04;;;;;;;0.70;0.70;;;-8.60;99.90;;;;;;5035834;28;20091;-74
2022/12/17 19:59:30;;;;;;;0.60;0.60;;;-8.60;99.90;;;;;;5017762;28;20038;-74
2022/12/17 20:01:56;;;;;;;0.60;0.60;;;-8.70;99.90;;;;;;5035594;28;20025;-74
2022/12/17 20:04:21;;;;;;;1.52;1.50;;;-8.80;99.90;;;;;;5017468;28;20052;-74
2022/12/17 20:06:47;;;;;;;1.38;1.27;;;-9.20;99.90;;;;;;5017600;28;20035;-74
2022/12/17 20:09:13;;;;;;;0.60;0.60;;;-9.40;99.90;;;;;;5033609;28;20361;-74
2022/12/17 20:11:39;;;;;;;4.72;3.72;;;-9.40;99.90;;;;;;5005889;28;20109;-74
2022/12/17 20:14:07;;;;;;;2.30;2.20;;;-9.20;99.90;;;;;;5035223;28;20029;-74
2022/12/17 20:16:35;;;;;;;0.90;0.90;;;-9.20;99.90;;;;;;5034834;28;20021;-74
2022/12/17 20:19:03;;;;;;;1.55;1.52;;;-9.20;99.90;;;;;;5034335;28;20040;-74
2022/12/17 20:21:29;;;;;;;1.10;1.10;;;-9.20;99.90;;;;;;5034356;28;20541;-74
2022/12/17 20:23:55;;;;;;;19.30;4.97;;;-9.40;99.90;;;;;;5034260;28;20108;-74
2022/12/17 20:26:21;;;;;;;4.72;4.38;;;-9.40;99.90;;;;;;5034218;28;20021;-74
2022/12/17 20:28:46;;;;;;;1.80;1.75;;;-9.30;99.90;;;;;;5034332;28;20044;-74
2022/12/17 20:31:13;;;;;;;4.78;3.60;;;-9.40;99.90;;;;;;5034061;28;20545;-74
2022/12/17 20:33:38;;;;;;;3.30;3.20;;;-9.40;99.90;;;;;;5034087;28;20037;-74
2022/12/17 20:36:09;;;;;;;1.45;1.35;;;-9.50;99.90;;;;;;5034071;28;20442;-74
2022/12/17 20:38:36;;;;;;;3.15;2.95;;;-9.60;99.90;;;;;;5033707;28;20506;-74
2022/12/17 20:41:07;;;;;;;2.85;2.75;;;-9.50;99.90;;;;;;5033936;28;20033;-74
2022/12/17 20:43:33;;;;;;;2.05;1.95;;;-9.50;99.90;;;;;;5012771;28;20610;-74
2022/12/17 20:46:00;;;;;;;1.50;1.50;;;-9.50;99.90;;;;;;5012790;28;20034;-75
2022/12/17 20:48:26;;;;;;;0.90;0.90;;;-9.50;99.90;;;;;;5012688;28;20391;-74
2022/12/17 20:50:51;;;;;;;2.85;2.75;;;-9.30;99.90;;;;;;5012871;28;20033;-74
2022/12/17 20:53:17;;;;;;;0.60;0.60;;;-9.30;99.90;;;;;;5012029;28;20034;-74
2022/12/17 20:55:42;;;;;;;1.65;1.65;;;-9.20;99.90;;;;;;5013554;28;20026;-74
2022/12/17 20:58:08;;;;;;;0.70;0.70;;;-9.40;99.90;;;;;;5013815;28;20034;-75
2022/12/17 21:00:33;;;;;;;1.80;1.80;;;-9.50;99.90;;;;;;5012570;28;20025;-74
2022/12/17 21:02:59;;;;;;;0.85;0.85;;;-9.60;99.90;;;;;;5015567;28;20479;-74
2022/12/17 21:05:25;;;;;;;2.72;2.63;;;-9.50;99.90;;;;;;5033563;28;20029;-75
2022/12/17 21:07:51;;;;;;;0.93;0.93;;;-9.60;99.90;;;;;;5015777;28;20037;-75
2022/12/17 21:10:17;;;;;;;1.77;1.67;;;-9.70;99.90;;;;;;5033640;28;20043;-74
2022/12/17 21:15:27;;;;;;;0.60;0.60;;;-9.70;99.90;;;;;;5033517;28;20033;-74
2022/12/17 21:17:52;;;;;;;0.90;0.90;;;-9.90;99.90;;;;;;5033380;28;20030;-75
2022/12/17 21:20:18;;;;;;;1.38;1.38;;;-9.70;99.90;;;;;;5033240;28;20538;-75
2022/12/17 21:22:44;;;;;;;1.65;1.63;;;-9.70;99.90;;;;;;5015211;28;20045;-75
2022/12/17 21:25:09;;;;;;;1.15;1.13;;;-9.80;99.90;;;;;;5033230;28;20391;-75
2022/12/17 21:27:35;;;;;;;7.25;3.63;;;-9.90;99.90;;;;;;5015114;28;20471;-74
2022/12/17 21:30:01;;;;;;;1.67;1.67;;;-9.90;99.90;;;;;;5015404;28;20037;-74
2022/12/17 21:32:26;;;;;;;1.23;1.23;;;-9.80;99.90;;;;;;5032987;28;20454;-74
2022/12/17 21:34:52;;;;;;;11.75;5.03;;;-9.80;99.90;;;;;;5032915;28;20021;-73
2022/12/17 21:37:18;;;;;;;0.70;0.70;;;-9.90;99.90;;;;;;5032497;28;20025;-74
2022/12/17 21:39:44;;;;;;;1.30;1.30;;;-9.80;99.90;;;;;;5032858;28;20083;-73
2022/12/17 21:44:54;;;;;;;4.40;4.10;;;-9.70;99.90;;;;;;5032685;28;20446;-74
2022/12/17 21:47:19;;;;;;;1.10;1.10;;;-9.90;99.90;;;;;;5032394;28;20022;-74
2022/12/17 21:49:45;;;;;;;0.50;0.50;;;-9.90;99.90;;;;;;5032400;28;20030;-73
2022/12/17 21:52:11;;;;;;;0.98;0.98;;;-9.90;99.90;;;;;;5032389;28;20026;-74
2022/12/17 21:54:36;;;;;;;1.77;1.77;;;-9.90;99.90;;;;;;5021921;28;20028;-75
2022/12/17 21:57:02;;;;;;;2.72;2.63;;;-9.90;99.90;;;;;;5017468;28;20025;-75
2022/12/17 21:59:28;;;;;;;12.65;7.03;;;-9.90;99.90;;;;;;5032244;28;20038;-74
2022/12/17 22:01:55;;;;;;;0.70;0.70;;;-9.90;99.90;;;;;;5032440;28;20026;-74
2022/12/17 22:04:22;;;;;;;0.70;0.70;;;-9.90;99.90;;;;;;5014386;28;20116;-74
2022/12/17 22:06:48;;;;;;;0.90;0.90;;;-9.90;99.90;;;;;;5031647;28;20033;-74
2022/12/17 22:09:13;;;;;;;8.57;4.28;;;-9.90;99.90;;;;;;5012445;28;20029;-74
2022/12/17 22:11:39;;;;;;;0.80;0.80;;;-9.90;99.90;;;;;;5002873;28;20109;-74
2022/12/17 22:14:05;;;;;;;1.65;1.58;;;-10.00;99.90;;;;;;5032176;28;20026;-74
2022/12/17 22:16:37;;;;;;;0.80;0.80;;;-9.90;99.90;;;;;;5014242;28;20078;-74
2022/12/17 22:19:12;;;;;;;1.55;1.55;;;-10.00;99.90;;;;;;5031858;28;20113;-74
2022/12/17 22:21:41;;;;;;;4.60;3.80;;;-10.10;99.90;;;;;;5032067;28;20474;-74
2022/12/17 22:24:10;;;;;;;2.53;2.35;;;-10.20;99.90;;;;;;5031974;28;20022;-74
2022/12/17 22:26:36;;;;;;;2.83;2.67;;;-10.50;99.90;;;;;;5032014;28;20029;-74
2022/12/17 22:29:02;;;;;;;0.80;0.80;;;-10.40;99.90;;;;;;5032458;28;20025;-74
2022/12/17 22:34:12;;;;;;;2.03;1.95;;;-10.40;99.90;;;;;;5032820;28;20039;-74
2022/12/17 22:36:38;;;;;;;10.73;3.05;;;-10.40;99.90;;;;;;5031975;28;20108;-74
2022/12/17 22:39:07;;;;;;;1.40;1.40;;;-10.40;99.90;;;;;;5014104;28;20531;-74
2022/12/17 22:44:18;;;;;;;2.03;1.95;;;-10.30;99.90;;;;;;5031849;28;20553;-74
2022/12/17 22:46:43;;;;;;;5.95;5.38;;;-10.40;99.90;;;;;;5031951;28;20036;-75
2022/12/17 22:49:09;;;;;;;3.75;3.40;;;-10.30;99.90;;;;;;5013917;28;20026;-74
2022/12/17 22:51:35;;;;;;;3.30;3.08;;;-10.20;99.90;;;;;;5031574;28;20029;-74
2022/12/17 22:54:02;;;;;;;3.35;3.15;;;-10.20;99.90;;;;;;5031718;28;20043;-74
2022/12/17 22:56:28;;;;;;;1.33;1.33;;;-10.10;99.90;;;;;;5031472;28;20080;-74
2022/12/17 22:58:53;;;;;;;2.95;2.75;;;-10.20;99.90;;;;;;5013757;28;20487;-74
2022/12/17 23:01:19;;;;;;;1.60;1.60;;;-10.20;99.90;;;;;;5031328;28;20365;-74
2022/12/17 23:03:45;;;;;;;5.90;5.55;;;-10.40;99.90;;;;;;5031668;28;20036;-74
2022/12/17 23:06:16;;;;;;;3.60;3.30;;;-10.60;99.90;;;;;;5031544;28;20495;-74
2022/12/17 23:08:43;;;;;;;1.00;1.00;;;-10.50;99.90;;;;;;5013894;28;20034;-74
2022/12/17 23:11:14;;;;;;;2.38;2.28;;;-10.40;99.90;;;;;;5017985;28;20029;-74
2022/12/17 23:13:40;;;;;;;5.63;5.25;;;-10.50;99.90;;;;;;5013978;28;20029;-73
2022/12/17 23:16:08;;;;;;;0.93;0.93;;;-10.40;99.90;;;;;;5031629;28;20124;-74
2022/12/17 23:18:34;;;;;;;0.82;0.82;;;-10.40;99.90;;;;;;5031912;28;20033;-74
2022/12/17 23:21:14;;;;;;;3.63;3.42;;;-10.40;99.90;;;;;;5035239;28;20502;-73
2022/12/17 23:23:41;;;;;;;0.90;0.90;;;-10.40;99.90;;;;;;5035353;28;20056;-74
2022/12/17 23:26:25;;;;;;;3.58;3.42;;;-10.30;99.90;;;;;;5017720;28;20029;-73
2022/12/17 23:29:00;;;;;;;1.33;1.33;;;-10.40;99.90;;;;;;5017460;28;20210;-73
2022/12/17 23:31:30;;;;;;;1.40;1.40;;;-10.30;99.90;;;;;;5017181;28;20191;-74
2022/12/17 23:33:55;;;;;;;0.70;0.70;;;-10.20;99.90;;;;;;5017211;28;20033;-75
2022/12/17 23:36:23;;;;;;;0.80;0.80;;;-10.20;99.90;;;;;;5017234;28;20084;-74
2022/12/17 23:38:49;;;;;;;1.20;1.17;;;-10.20;99.90;;;;;;5034609;28;20049;-75
2022/12/17 23:41:20;;;;;;;3.38;2.20;;;-10.30;99.90;;;;;;5034776;28;20025;-74
2022/12/17 23:43:47;;;;;;;0.82;0.82;;;-10.30;99.90;;;;;;5034767;28;20030;-74
2022/12/17 23:46:13;;;;;;;0.93;0.93;;;-10.20;99.90;;;;;;5017420;28;20451;-74
2022/12/17 23:48:41;;;;;;;1.48;1.48;;;-10.40;99.90;;;;;;5034498;28;20022;-74
2022/12/17 23:51:08;;;;;;;0.90;0.90;;;-10.40;99.90;;;;;;5016983;28;20615;-75
2022/12/17 23:53:34;;;;;;;2.55;2.35;;;-10.50;99.90;;;;;;5034599;28;20083;-74
2022/12/17 23:56:09;;;;;;;2.15;2.08;;;-10.90;99.90;;;;;;5034728;28;20479;-73
2022/12/17 23:58:36;;;;;;;0.90;0.90;;;-10.90;99.90;;;;;;5013508;28;20499;-74
